sensor_id;sensor_type;location;lat;lon;timestamp;P1;durP1;ratioP1;P2;durP2;ratioP2
44120;SDS011;29783;52.504;13.478;2023-04-06T00:00:55;7.40;;;5.32;;
44120;SDS011;29783;52.504;13.478;2023-04-06T00:03:21;8.57;;;5.25;;
44120;SDS011;29783;52.504;13.478;2023-04-06T00:05:47;9.93;;;5.20;;
44120;SDS011;29783;52.504;13.478;2023-04-06T00:08:13;11.70;;;5.88;;
44120;SDS011;29783;52.504;13.478;2023-04-06T00:10:40;10.23;;;6.18;;
44120;SDS011;29783;52.504;13.478;2023-04-06T00:13:06;6.82;;;4.78;;
44120;SDS011;29783;52.504;13.478;2023-04-06T00:15:32;8.32;;;5.15;;
44120;SDS011;29783;52.504;13.478;2023-04-06T00:17:59;8.00;;;5.82;;
44120;SDS011;29783;52.504;13.478;2023-04-06T00:20:24;11.25;;;4.95;;
44120;SDS011;29783;52.504;13.478;2023-04-06T00:22:50;11.65;;;6.13;;
44120;SDS011;29783;52.504;13.478;2023-04-06T00:25:16;9.05;;;5.60;;
44120;SDS011;29783;52.504;13.478;2023-04-06T00:27:42;7.82;;;5.32;;
44120;SDS011;29783;52.504;13.478;2023-04-06T00:30:08;9.00;;;5.63;;
44120;SDS011;29783;52.504;13.478;2023-04-06T00:32:34;23.88;;;5.80;;
44120;SDS011;29783;52.504;13.478;2023-04-06T00:35:04;10.05;;;6.20;;
44120;SDS011;29783;52.504;13.478;2023-04-06T00:37:31;11.82;;;5.80;;
44120;SDS011;29783;52.504;13.478;2023-04-06T00:39:57;8.93;;;5.47;;
44120;SDS011;29783;52.504;13.478;2023-04-06T00:42:23;8.77;;;5.75;;
44120;SDS011;29783;52.504;13.478;2023-04-06T00:44:55;9.63;;;5.78;;
44120;SDS011;29783;52.504;13.478;2023-04-06T00:47:22;9.95;;;5.90;;
44120;SDS011;29783;52.504;13.478;2023-04-06T00:49:50;9.95;;;5.45;;
44120;SDS011;29783;52.504;13.478;2023-04-06T00:52:17;13.20;;;6.22;;
44120;SDS011;29783;52.504;13.478;2023-04-06T00:54:43;10.85;;;5.72;;
44120;SDS011;29783;52.504;13.478;2023-04-06T00:57:09;12.15;;;6.20;;
44120;SDS011;29783;52.504;13.478;2023-04-06T00:59:39;10.23;;;6.38;;
44120;SDS011;29783;52.504;13.478;2023-04-06T01:02:05;15.00;;;8.63;;
44120;SDS011;29783;52.504;13.478;2023-04-06T01:04:32;15.02;;;9.13;;
44120;SDS011;29783;52.504;13.478;2023-04-06T01:06:58;18.30;;;10.15;;
44120;SDS011;29783;52.504;13.478;2023-04-06T01:09:23;17.50;;;8.90;;
44120;SDS011;29783;52.504;13.478;2023-04-06T01:11:49;14.77;;;7.38;;
44120;SDS011;29783;52.504;13.478;2023-04-06T01:14:15;15.77;;;6.05;;
44120;SDS011;29783;52.504;13.478;2023-04-06T01:16:41;8.05;;;5.57;;
44120;SDS011;29783;52.504;13.478;2023-04-06T01:19:08;7.78;;;5.68;;
44120;SDS011;29783;52.504;13.478;2023-04-06T01:21:37;10.55;;;5.90;;
44120;SDS011;29783;52.504;13.478;2023-04-06T01:24:03;11.80;;;6.15;;
44120;SDS011;29783;52.504;13.478;2023-04-06T01:26:30;13.15;;;5.22;;
44120;SDS011;29783;52.504;13.478;2023-04-06T01:28:56;9.63;;;5.40;;
44120;SDS011;29783;52.504;13.478;2023-04-06T01:31:22;6.90;;;5.07;;
44120;SDS011;29783;52.504;13.478;2023-04-06T01:33:48;10.45;;;6.00;;
44120;SDS011;29783;52.504;13.478;2023-04-06T01:36:15;8.88;;;5.85;;
44120;SDS011;29783;52.504;13.478;2023-04-06T01:38:40;11.57;;;5.93;;
44120;SDS011;29783;52.504;13.478;2023-04-06T01:41:07;10.48;;;5.60;;
44120;SDS011;29783;52.504;13.478;2023-04-06T01:43:33;6.82;;;5.20;;
44120;SDS011;29783;52.504;13.478;2023-04-06T01:45:59;6.95;;;5.20;;
44120;SDS011;29783;52.504;13.478;2023-04-06T01:48:26;7.28;;;5.30;;
44120;SDS011;29783;52.504;13.478;2023-04-06T01:50:52;9.63;;;5.75;;
44120;SDS011;29783;52.504;13.478;2023-04-06T01:53:18;9.52;;;5.20;;
44120;SDS011;29783;52.504;13.478;2023-04-06T01:55:44;9.13;;;4.90;;
44120;SDS011;29783;52.504;13.478;2023-04-06T01:58:10;8.52;;;5.72;;
44120;SDS011;29783;52.504;13.478;2023-04-06T02:00:36;9.25;;;5.13;;
44120;SDS011;29783;52.504;13.478;2023-04-06T02:03:02;11.75;;;5.57;;
44120;SDS011;29783;52.504;13.478;2023-04-06T02:05:29;8.90;;;4.85;;
44120;SDS011;29783;52.504;13.478;2023-04-06T02:07:56;7.57;;;5.10;;
44120;SDS011;29783;52.504;13.478;2023-04-06T02:10:22;9.82;;;5.13;;
44120;SDS011;29783;52.504;13.478;2023-04-06T02:12:49;10.77;;;5.05;;
44120;SDS011;29783;52.504;13.478;2023-04-06T02:15:15;14.95;;;5.82;;
44120;SDS011;29783;52.504;13.478;2023-04-06T02:17:41;8.38;;;5.40;;
44120;SDS011;29783;52.504;13.478;2023-04-06T02:20:07;7.25;;;5.50;;
44120;SDS011;29783;52.504;13.478;2023-04-06T02:22:36;7.07;;;5.00;;
44120;SDS011;29783;52.504;13.478;2023-04-06T02:25:02;10.20;;;4.85;;
44120;SDS011;29783;52.504;13.478;2023-04-06T02:27:28;9.20;;;5.40;;
44120;SDS011;29783;52.504;13.478;2023-04-06T02:29:54;13.45;;;5.15;;
44120;SDS011;29783;52.504;13.478;2023-04-06T02:32:19;9.80;;;5.68;;
44120;SDS011;29783;52.504;13.478;2023-04-06T02:34:45;8.65;;;5.45;;
44120;SDS011;29783;52.504;13.478;2023-04-06T02:37:11;9.45;;;5.60;;
44120;SDS011;29783;52.504;13.478;2023-04-06T02:39:37;9.05;;;5.70;;
44120;SDS011;29783;52.504;13.478;2023-04-06T02:42:02;12.98;;;6.13;;
44120;SDS011;29783;52.504;13.478;2023-04-06T02:44:28;8.25;;;5.55;;
44120;SDS011;29783;52.504;13.478;2023-04-06T02:46:54;9.30;;;5.63;;
44120;SDS011;29783;52.504;13.478;2023-04-06T02:49:20;13.93;;;5.90;;
44120;SDS011;29783;52.504;13.478;2023-04-06T02:51:46;11.45;;;6.07;;
44120;SDS011;29783;52.504;13.478;2023-04-06T02:54:12;10.30;;;6.10;;
44120;SDS011;29783;52.504;13.478;2023-04-06T02:56:38;11.30;;;6.43;;
44120;SDS011;29783;52.504;13.478;2023-04-06T02:59:03;13.00;;;5.97;;
44120;SDS011;29783;52.504;13.478;2023-04-06T03:01:29;11.57;;;6.25;;
44120;SDS011;29783;52.504;13.478;2023-04-06T03:03:55;13.75;;;6.05;;
44120;SDS011;29783;52.504;13.478;2023-04-06T03:06:21;13.52;;;6.80;;
44120;SDS011;29783;52.504;13.478;2023-04-06T03:08:46;8.38;;;5.78;;
44120;SDS011;29783;52.504;13.478;2023-04-06T03:11:12;11.88;;;6.30;;
44120;SDS011;29783;52.504;13.478;2023-04-06T03:13:38;10.40;;;5.85;;
44120;SDS011;29783;52.504;13.478;2023-04-06T03:16:04;10.00;;;5.97;;
44120;SDS011;29783;52.504;13.478;2023-04-06T03:18:30;12.57;;;6.03;;
44120;SDS011;29783;52.504;13.478;2023-04-06T03:20:56;13.00;;;6.30;;
44120;SDS011;29783;52.504;13.478;2023-04-06T03:23:22;19.55;;;6.82;;
44120;SDS011;29783;52.504;13.478;2023-04-06T03:25:48;16.77;;;6.22;;
44120;SDS011;29783;52.504;13.478;2023-04-06T03:28:14;9.15;;;5.75;;
44120;SDS011;29783;52.504;13.478;2023-04-06T03:30:41;11.38;;;6.35;;
44120;SDS011;29783;52.504;13.478;2023-04-06T03:33:07;9.90;;;5.88;;
44120;SDS011;29783;52.504;13.478;2023-04-06T03:35:32;12.77;;;6.57;;
44120;SDS011;29783;52.504;13.478;2023-04-06T03:37:58;16.25;;;6.18;;
44120;SDS011;29783;52.504;13.478;2023-04-06T03:40:24;10.00;;;6.47;;
44120;SDS011;29783;52.504;13.478;2023-04-06T03:42:50;14.20;;;6.57;;
44120;SDS011;29783;52.504;13.478;2023-04-06T03:45:16;14.60;;;7.43;;
44120;SDS011;29783;52.504;13.478;2023-04-06T03:47:42;19.80;;;7.85;;
44120;SDS011;29783;52.504;13.478;2023-04-06T03:50:08;22.42;;;8.90;;
44120;SDS011;29783;52.504;13.478;2023-04-06T03:52:34;19.58;;;8.13;;
44120;SDS011;29783;52.504;13.478;2023-04-06T03:55:01;22.40;;;9.52;;
44120;SDS011;29783;52.504;13.478;2023-04-06T03:57:27;16.05;;;9.02;;
44120;SDS011;29783;52.504;13.478;2023-04-06T03:59:52;16.98;;;7.95;;
44120;SDS011;29783;52.504;13.478;2023-04-06T04:02:18;12.70;;;6.40;;
44120;SDS011;29783;52.504;13.478;2023-04-06T04:04:44;12.43;;;6.88;;
44120;SDS011;29783;52.504;13.478;2023-04-06T04:07:10;14.63;;;7.05;;
44120;SDS011;29783;52.504;13.478;2023-04-06T04:09:36;12.35;;;6.55;;
44120;SDS011;29783;52.504;13.478;2023-04-06T04:12:02;20.83;;;6.75;;
44120;SDS011;29783;52.504;13.478;2023-04-06T04:14:28;11.55;;;6.78;;
44120;SDS011;29783;52.504;13.478;2023-04-06T04:16:54;19.42;;;7.07;;
44120;SDS011;29783;52.504;13.478;2023-04-06T04:19:20;10.35;;;5.93;;
44120;SDS011;29783;52.504;13.478;2023-04-06T04:21:46;8.63;;;6.07;;
44120;SDS011;29783;52.504;13.478;2023-04-06T04:24:12;13.20;;;6.50;;
44120;SDS011;29783;52.504;13.478;2023-04-06T04:26:38;10.77;;;6.45;;
44120;SDS011;29783;52.504;13.478;2023-04-06T04:29:05;15.80;;;5.90;;
44120;SDS011;29783;52.504;13.478;2023-04-06T04:31:31;9.65;;;6.00;;
44120;SDS011;29783;52.504;13.478;2023-04-06T04:33:57;8.13;;;5.55;;
44120;SDS011;29783;52.504;13.478;2023-04-06T04:36:24;12.40;;;6.50;;
44120;SDS011;29783;52.504;13.478;2023-04-06T04:38:51;10.20;;;5.50;;
44120;SDS011;29783;52.504;13.478;2023-04-06T04:41:17;11.00;;;6.10;;
44120;SDS011;29783;52.504;13.478;2023-04-06T04:43:43;11.07;;;5.00;;
44120;SDS011;29783;52.504;13.478;2023-04-06T04:46:09;9.77;;;5.65;;
44120;SDS011;29783;52.504;13.478;2023-04-06T04:48:35;10.65;;;5.40;;
44120;SDS011;29783;52.504;13.478;2023-04-06T04:51:01;11.00;;;5.68;;
44120;SDS011;29783;52.504;13.478;2023-04-06T04:53:29;8.43;;;5.68;;
44120;SDS011;29783;52.504;13.478;2023-04-06T04:55:54;20.80;;;5.63;;
44120;SDS011;29783;52.504;13.478;2023-04-06T04:58:20;8.18;;;5.28;;
44120;SDS011;29783;52.504;13.478;2023-04-06T05:00:46;9.27;;;5.60;;
44120;SDS011;29783;52.504;13.478;2023-04-06T05:03:14;11.02;;;5.68;;
44120;SDS011;29783;52.504;13.478;2023-04-06T05:05:51;11.55;;;5.53;;
44120;SDS011;29783;52.504;13.478;2023-04-06T05:08:17;7.15;;;5.05;;
44120;SDS011;29783;52.504;13.478;2023-04-06T05:10:43;8.45;;;5.68;;
44120;SDS011;29783;52.504;13.478;2023-04-06T05:13:13;10.77;;;5.55;;
44120;SDS011;29783;52.504;13.478;2023-04-06T05:15:39;10.73;;;5.68;;
44120;SDS011;29783;52.504;13.478;2023-04-06T05:18:08;11.48;;;5.60;;
44120;SDS011;29783;52.504;13.478;2023-04-06T05:20:36;9.57;;;5.63;;
44120;SDS011;29783;52.504;13.478;2023-04-06T05:23:03;10.20;;;5.85;;
44120;SDS011;29783;52.504;13.478;2023-04-06T05:25:29;6.75;;;5.05;;
44120;SDS011;29783;52.504;13.478;2023-04-06T05:27:55;10.70;;;5.35;;
44120;SDS011;29783;52.504;13.478;2023-04-06T05:30:21;12.80;;;5.22;;
44120;SDS011;29783;52.504;13.478;2023-04-06T05:32:47;9.48;;;5.78;;
44120;SDS011;29783;52.504;13.478;2023-04-06T05:35:13;8.45;;;5.30;;
44120;SDS011;29783;52.504;13.478;2023-04-06T05:37:39;9.38;;;4.60;;
44120;SDS011;29783;52.504;13.478;2023-04-06T05:40:05;8.95;;;5.22;;
44120;SDS011;29783;52.504;13.478;2023-04-06T05:42:36;14.30;;;5.20;;
44120;SDS011;29783;52.504;13.478;2023-04-06T05:45:03;11.07;;;5.03;;
44120;SDS011;29783;52.504;13.478;2023-04-06T05:47:32;7.15;;;5.00;;
44120;SDS011;29783;52.504;13.478;2023-04-06T05:49:58;9.73;;;5.47;;
44120;SDS011;29783;52.504;13.478;2023-04-06T05:52:23;10.27;;;5.05;;
44120;SDS011;29783;52.504;13.478;2023-04-06T05:54:49;8.30;;;4.57;;
44120;SDS011;29783;52.504;13.478;2023-04-06T05:57:15;9.52;;;4.60;;
44120;SDS011;29783;52.504;13.478;2023-04-06T05:59:44;14.43;;;5.28;;
44120;SDS011;29783;52.504;13.478;2023-04-06T06:02:09;10.43;;;5.30;;
44120;SDS011;29783;52.504;13.478;2023-04-06T06:04:35;7.82;;;4.88;;
44120;SDS011;29783;52.504;13.478;2023-04-06T06:07:01;10.73;;;5.13;;
44120;SDS011;29783;52.504;13.478;2023-04-06T06:09:27;9.43;;;5.00;;
44120;SDS011;29783;52.504;13.478;2023-04-06T06:11:55;16.63;;;5.43;;
44120;SDS011;29783;52.504;13.478;2023-04-06T06:14:47;11.75;;;5.05;;
44120;SDS011;29783;52.504;13.478;2023-04-06T06:17:28;12.32;;;4.70;;
44120;SDS011;29783;52.504;13.478;2023-04-06T06:20:00;14.50;;;5.10;;
44120;SDS011;29783;52.504;13.478;2023-04-06T06:22:26;12.27;;;5.38;;
44120;SDS011;29783;52.504;13.478;2023-04-06T06:24:52;15.32;;;4.97;;
44120;SDS011;29783;52.504;13.478;2023-04-06T06:27:18;10.88;;;4.88;;
44120;SDS011;29783;52.504;13.478;2023-04-06T06:29:44;16.83;;;4.75;;
44120;SDS011;29783;52.504;13.478;2023-04-06T06:32:10;16.33;;;5.63;;
44120;SDS011;29783;52.504;13.478;2023-04-06T06:34:36;14.48;;;5.07;;
44120;SDS011;29783;52.504;13.478;2023-04-06T06:37:01;16.08;;;5.30;;
44120;SDS011;29783;52.504;13.478;2023-04-06T06:39:28;13.57;;;5.13;;
44120;SDS011;29783;52.504;13.478;2023-04-06T06:41:56;14.80;;;5.10;;
44120;SDS011;29783;52.504;13.478;2023-04-06T06:44:41;16.95;;;4.88;;
44120;SDS011;29783;52.504;13.478;2023-04-06T06:47:07;16.17;;;5.22;;
44120;SDS011;29783;52.504;13.478;2023-04-06T06:49:33;11.10;;;4.90;;
44120;SDS011;29783;52.504;13.478;2023-04-06T06:51:58;12.55;;;4.57;;
44120;SDS011;29783;52.504;13.478;2023-04-06T06:54:24;14.38;;;4.45;;
44120;SDS011;29783;52.504;13.478;2023-04-06T06:56:50;29.92;;;4.68;;
44120;SDS011;29783;52.504;13.478;2023-04-06T06:59:17;11.05;;;4.72;;
44120;SDS011;29783;52.504;13.478;2023-04-06T07:04:13;8.48;;;4.63;;
44120;SDS011;29783;52.504;13.478;2023-04-06T07:06:41;8.35;;;4.57;;
44120;SDS011;29783;52.504;13.478;2023-04-06T07:09:06;10.90;;;4.10;;
44120;SDS011;29783;52.504;13.478;2023-04-06T07:11:32;5.30;;;3.53;;
44120;SDS011;29783;52.504;13.478;2023-04-06T07:13:58;12.10;;;3.63;;
44120;SDS011;29783;52.504;13.478;2023-04-06T07:16:23;8.05;;;4.50;;
44120;SDS011;29783;52.504;13.478;2023-04-06T07:18:49;9.55;;;4.10;;
44120;SDS011;29783;52.504;13.478;2023-04-06T07:21:15;9.27;;;3.95;;
44120;SDS011;29783;52.504;13.478;2023-04-06T07:23:41;13.70;;;3.65;;
44120;SDS011;29783;52.504;13.478;2023-04-06T07:26:07;9.18;;;3.95;;
44120;SDS011;29783;52.504;13.478;2023-04-06T07:28:34;6.45;;;3.92;;
44120;SDS011;29783;52.504;13.478;2023-04-06T07:31:00;11.73;;;4.15;;
44120;SDS011;29783;52.504;13.478;2023-04-06T07:33:26;15.18;;;4.45;;
44120;SDS011;29783;52.504;13.478;2023-04-06T07:35:55;12.80;;;4.95;;
44120;SDS011;29783;52.504;13.478;2023-04-06T07:38:21;13.85;;;7.05;;
44120;SDS011;29783;52.504;13.478;2023-04-06T07:40:47;17.20;;;7.90;;
44120;SDS011;29783;52.504;13.478;2023-04-06T07:43:13;17.48;;;9.20;;
44120;SDS011;29783;52.504;13.478;2023-04-06T07:45:39;22.25;;;11.48;;
44120;SDS011;29783;52.504;13.478;2023-04-06T07:48:04;28.67;;;12.85;;
44120;SDS011;29783;52.504;13.478;2023-04-06T07:50:31;22.73;;;10.52;;
44120;SDS011;29783;52.504;13.478;2023-04-06T07:52:57;16.77;;;8.48;;
44120;SDS011;29783;52.504;13.478;2023-04-06T07:55:23;16.00;;;7.28;;
44120;SDS011;29783;52.504;13.478;2023-04-06T07:57:48;13.82;;;5.32;;
44120;SDS011;29783;52.504;13.478;2023-04-06T08:00:15;16.58;;;5.18;;
44120;SDS011;29783;52.504;13.478;2023-04-06T08:02:41;9.32;;;4.38;;
44120;SDS011;29783;52.504;13.478;2023-04-06T08:05:07;6.93;;;3.78;;
44120;SDS011;29783;52.504;13.478;2023-04-06T08:07:33;6.30;;;3.47;;
44120;SDS011;29783;52.504;13.478;2023-04-06T08:10:00;7.57;;;3.40;;
44120;SDS011;29783;52.504;13.478;2023-04-06T08:12:26;8.48;;;2.88;;
44120;SDS011;29783;52.504;13.478;2023-04-06T08:14:52;8.45;;;3.03;;
44120;SDS011;29783;52.504;13.478;2023-04-06T08:17:17;6.55;;;2.70;;
44120;SDS011;29783;52.504;13.478;2023-04-06T08:19:43;5.53;;;2.70;;
44120;SDS011;29783;52.504;13.478;2023-04-06T08:22:10;4.65;;;2.35;;
44120;SDS011;29783;52.504;13.478;2023-04-06T08:24:36;8.32;;;2.90;;
44120;SDS011;29783;52.504;13.478;2023-04-06T08:27:02;5.13;;;2.75;;
44120;SDS011;29783;52.504;13.478;2023-04-06T08:29:28;4.75;;;2.70;;
44120;SDS011;29783;52.504;13.478;2023-04-06T08:31:53;5.47;;;2.70;;
44120;SDS011;29783;52.504;13.478;2023-04-06T08:34:20;4.88;;;2.47;;
44120;SDS011;29783;52.504;13.478;2023-04-06T08:36:46;5.10;;;2.10;;
44120;SDS011;29783;52.504;13.478;2023-04-06T08:39:12;3.08;;;2.00;;
44120;SDS011;29783;52.504;13.478;2023-04-06T08:41:38;2.60;;;2.00;;
44120;SDS011;29783;52.504;13.478;2023-04-06T08:44:06;4.80;;;2.22;;
44120;SDS011;29783;52.504;13.478;2023-04-06T08:46:32;5.40;;;2.40;;
44120;SDS011;29783;52.504;13.478;2023-04-06T08:49:01;13.68;;;2.30;;
44120;SDS011;29783;52.504;13.478;2023-04-06T08:51:28;3.47;;;1.75;;
44120;SDS011;29783;52.504;13.478;2023-04-06T08:53:58;5.40;;;2.00;;
44120;SDS011;29783;52.504;13.478;2023-04-06T08:56:25;5.35;;;1.92;;
44120;SDS011;29783;52.504;13.478;2023-04-06T08:58:52;4.38;;;2.10;;
44120;SDS011;29783;52.504;13.478;2023-04-06T09:01:23;2.88;;;1.85;;
44120;SDS011;29783;52.504;13.478;2023-04-06T09:03:50;4.18;;;2.03;;
44120;SDS011;29783;52.504;13.478;2023-04-06T09:06:20;5.47;;;1.80;;
44120;SDS011;29783;52.504;13.478;2023-04-06T09:08:46;5.82;;;2.58;;
44120;SDS011;29783;52.504;13.478;2023-04-06T09:11:12;4.38;;;2.10;;
44120;SDS011;29783;52.504;13.478;2023-04-06T09:13:46;4.32;;;2.35;;
44120;SDS011;29783;52.504;13.478;2023-04-06T09:16:17;6.18;;;1.92;;
44120;SDS011;29783;52.504;13.478;2023-04-06T09:18:43;9.18;;;1.95;;
44120;SDS011;29783;52.504;13.478;2023-04-06T09:21:09;3.58;;;1.85;;
44120;SDS011;29783;52.504;13.478;2023-04-06T09:23:35;14.48;;;1.77;;
44120;SDS011;29783;52.504;13.478;2023-04-06T09:28:46;5.30;;;2.05;;
44120;SDS011;29783;52.504;13.478;2023-04-06T09:31:14;4.55;;;2.10;;
44120;SDS011;29783;52.504;13.478;2023-04-06T09:33:41;4.55;;;1.70;;
44120;SDS011;29783;52.504;13.478;2023-04-06T09:36:08;4.07;;;1.73;;
44120;SDS011;29783;52.504;13.478;2023-04-06T09:38:36;4.95;;;2.05;;
44120;SDS011;29783;52.504;13.478;2023-04-06T09:41:03;4.63;;;1.77;;
44120;SDS011;29783;52.504;13.478;2023-04-06T09:43:29;4.30;;;1.60;;
44120;SDS011;29783;52.504;13.478;2023-04-06T09:45:55;4.35;;;1.80;;
44120;SDS011;29783;52.504;13.478;2023-04-06T09:48:22;1.90;;;1.25;;
44120;SDS011;29783;52.504;13.478;2023-04-06T09:50:50;3.72;;;1.58;;
44120;SDS011;29783;52.504;13.478;2023-04-06T09:53:20;2.83;;;1.48;;
44120;SDS011;29783;52.504;13.478;2023-04-06T09:55:50;5.53;;;1.92;;
44120;SDS011;29783;52.504;13.478;2023-04-06T09:58:18;4.50;;;1.63;;
44120;SDS011;29783;52.504;13.478;2023-04-06T10:12:14;2.80;;;1.50;;
44120;SDS011;29783;52.504;13.478;2023-04-06T10:14:42;5.43;;;1.63;;
44120;SDS011;29783;52.504;13.478;2023-04-06T10:17:09;3.03;;;1.85;;
44120;SDS011;29783;52.504;13.478;2023-04-06T10:23:08;4.20;;;1.45;;
44120;SDS011;29783;52.504;13.478;2023-04-06T10:25:51;4.95;;;1.42;;
44120;SDS011;29783;52.504;13.478;2023-04-06T10:28:21;2.67;;;1.30;;
44120;SDS011;29783;52.504;13.478;2023-04-06T10:30:47;4.47;;;1.20;;
44120;SDS011;29783;52.504;13.478;2023-04-06T10:33:15;2.40;;;1.20;;
44120;SDS011;29783;52.504;13.478;2023-04-06T10:35:43;2.40;;;1.42;;
44120;SDS011;29783;52.504;13.478;2023-04-06T10:38:09;3.47;;;1.30;;
44120;SDS011;29783;52.504;13.478;2023-04-06T10:40:38;2.20;;;1.40;;
44120;SDS011;29783;52.504;13.478;2023-04-06T10:43:08;6.85;;;1.65;;
44120;SDS011;29783;52.504;13.478;2023-04-06T10:45:37;4.28;;;1.40;;
44120;SDS011;29783;52.504;13.478;2023-04-06T10:48:13;9.10;;;2.03;;
44120;SDS011;29783;52.504;13.478;2023-04-06T10:50:46;7.70;;;1.40;;
44120;SDS011;29783;52.504;13.478;2023-04-06T10:53:23;3.45;;;1.17;;
44120;SDS011;29783;52.504;13.478;2023-04-06T10:55:50;3.13;;;1.27;;
44120;SDS011;29783;52.504;13.478;2023-04-06T10:58:17;2.70;;;1.50;;
44120;SDS011;29783;52.504;13.478;2023-04-06T11:05:53;4.05;;;1.50;;
44120;SDS011;29783;52.504;13.478;2023-04-06T11:08:26;3.40;;;1.38;;
44120;SDS011;29783;52.504;13.478;2023-04-06T11:11:08;1.90;;;1.20;;
44120;SDS011;29783;52.504;13.478;2023-04-06T11:16:12;8.35;;;1.35;;
44120;SDS011;29783;52.504;13.478;2023-04-06T11:18:46;7.35;;;1.30;;
44120;SDS011;29783;52.504;13.478;2023-04-06T11:21:35;2.70;;;1.10;;
44120;SDS011;29783;52.504;13.478;2023-04-06T11:24:25;3.58;;;1.70;;
44120;SDS011;29783;52.504;13.478;2023-04-06T11:26:51;5.30;;;1.40;;
44120;SDS011;29783;52.504;13.478;2023-04-06T11:29:17;3.17;;;1.40;;
44120;SDS011;29783;52.504;13.478;2023-04-06T11:31:46;2.47;;;1.40;;
44120;SDS011;29783;52.504;13.478;2023-04-06T11:34:20;4.35;;;1.70;;
44120;SDS011;29783;52.504;13.478;2023-04-06T11:36:47;3.83;;;1.52;;
44120;SDS011;29783;52.504;13.478;2023-04-06T11:39:24;5.40;;;2.25;;
44120;SDS011;29783;52.504;13.478;2023-04-06T11:41:52;4.18;;;1.40;;
44120;SDS011;29783;52.504;13.478;2023-04-06T11:44:33;5.10;;;1.75;;
44120;SDS011;29783;52.504;13.478;2023-04-06T11:47:00;3.83;;;1.70;;
44120;SDS011;29783;52.504;13.478;2023-04-06T11:49:30;5.57;;;2.63;;
44120;SDS011;29783;52.504;13.478;2023-04-06T11:51:57;2.63;;;1.70;;
44120;SDS011;29783;52.504;13.478;2023-04-06T11:56:55;2.17;;;1.17;;
44120;SDS011;29783;52.504;13.478;2023-04-06T11:59:21;8.80;;;1.48;;
44120;SDS011;29783;52.504;13.478;2023-04-06T13:20:18;3.00;;;1.42;;
44120;SDS011;29783;52.504;13.478;2023-04-06T13:22:45;1.98;;;1.05;;
44120;SDS011;29783;52.504;13.478;2023-04-06T13:25:10;3.88;;;1.33;;
44120;SDS011;29783;52.504;13.478;2023-04-06T13:27:36;2.22;;;1.42;;
44120;SDS011;29783;52.504;13.478;2023-04-06T13:30:03;2.67;;;1.40;;
44120;SDS011;29783;52.504;13.478;2023-04-06T13:32:29;2.38;;;1.60;;
44120;SDS011;29783;52.504;13.478;2023-04-06T13:34:55;2.03;;;1.17;;
44120;SDS011;29783;52.504;13.478;2023-04-06T13:37:21;2.70;;;1.25;;
44120;SDS011;29783;52.504;13.478;2023-04-06T13:39:47;2.05;;;1.27;;
44120;SDS011;29783;52.504;13.478;2023-04-06T13:42:13;3.08;;;1.60;;
44120;SDS011;29783;52.504;13.478;2023-04-06T13:44:38;2.75;;;1.52;;
44120;SDS011;29783;52.504;13.478;2023-04-06T13:47:04;2.75;;;1.50;;
44120;SDS011;29783;52.504;13.478;2023-04-06T13:49:30;1.80;;;1.30;;
44120;SDS011;29783;52.504;13.478;2023-04-06T13:51:57;1.80;;;1.27;;
44120;SDS011;29783;52.504;13.478;2023-04-06T13:54:23;3.22;;;1.52;;
44120;SDS011;29783;52.504;13.478;2023-04-06T13:56:51;3.05;;;1.40;;
44120;SDS011;29783;52.504;13.478;2023-04-06T13:59:17;2.33;;;1.30;;
44120;SDS011;29783;52.504;13.478;2023-04-06T14:49:10;5.43;;;1.30;;
44120;SDS011;29783;52.504;13.478;2023-04-06T14:51:39;5.90;;;1.48;;
44120;SDS011;29783;52.504;13.478;2023-04-06T14:54:05;2.10;;;1.50;;
44120;SDS011;29783;52.504;13.478;2023-04-06T14:56:31;1.90;;;1.30;;
44120;SDS011;29783;52.504;13.478;2023-04-06T14:58:57;1.92;;;1.20;;
44120;SDS011;29783;52.504;13.478;2023-04-06T16:08:14;2.75;;;1.50;;
44120;SDS011;29783;52.504;13.478;2023-04-06T16:10:40;4.45;;;1.70;;
44120;SDS011;29783;52.504;13.478;2023-04-06T16:13:06;7.75;;;1.70;;
44120;SDS011;29783;52.504;13.478;2023-04-06T16:15:32;2.97;;;1.63;;
44120;SDS011;29783;52.504;13.478;2023-04-06T16:17:59;2.47;;;1.40;;
44120;SDS011;29783;52.504;13.478;2023-04-06T16:20:25;2.50;;;1.48;;
44120;SDS011;29783;52.504;13.478;2023-04-06T16:22:50;4.80;;;1.75;;
44120;SDS011;29783;52.504;13.478;2023-04-06T16:25:17;3.22;;;1.50;;
44120;SDS011;29783;52.504;13.478;2023-04-06T16:27:42;2.33;;;1.90;;
44120;SDS011;29783;52.504;13.478;2023-04-06T16:30:08;7.82;;;1.60;;
44120;SDS011;29783;52.504;13.478;2023-04-06T16:32:34;5.93;;;1.70;;
44120;SDS011;29783;52.504;13.478;2023-04-06T16:35:01;2.88;;;1.63;;
44120;SDS011;29783;52.504;13.478;2023-04-06T16:37:27;2.33;;;1.30;;
44120;SDS011;29783;52.504;13.478;2023-04-06T16:39:54;2.13;;;1.65;;
44120;SDS011;29783;52.504;13.478;2023-04-06T16:42:19;4.47;;;1.50;;
44120;SDS011;29783;52.504;13.478;2023-04-06T16:44:45;2.63;;;1.63;;
44120;SDS011;29783;52.504;13.478;2023-04-06T16:47:12;3.28;;;1.65;;
44120;SDS011;29783;52.504;13.478;2023-04-06T16:49:39;3.33;;;1.52;;
44120;SDS011;29783;52.504;13.478;2023-04-06T16:52:05;2.17;;;1.50;;
44120;SDS011;29783;52.504;13.478;2023-04-06T16:54:31;3.38;;;1.50;;
44120;SDS011;29783;52.504;13.478;2023-04-06T16:56:58;6.93;;;1.63;;
44120;SDS011;29783;52.504;13.478;2023-04-06T16:59:26;3.95;;;2.15;;
44120;SDS011;29783;52.504;13.478;2023-04-06T17:01:52;3.28;;;1.75;;
44120;SDS011;29783;52.504;13.478;2023-04-06T17:04:17;4.95;;;2.10;;
44120;SDS011;29783;52.504;13.478;2023-04-06T17:06:43;4.78;;;1.67;;
44120;SDS011;29783;52.504;13.478;2023-04-06T17:09:09;4.20;;;1.85;;
44120;SDS011;29783;52.504;13.478;2023-04-06T17:11:35;4.18;;;2.33;;
44120;SDS011;29783;52.504;13.478;2023-04-06T17:14:00;2.72;;;2.10;;
44120;SDS011;29783;52.504;13.478;2023-04-06T17:16:26;3.42;;;1.92;;
44120;SDS011;29783;52.504;13.478;2023-04-06T17:18:55;4.07;;;1.90;;
44120;SDS011;29783;52.504;13.478;2023-04-06T17:21:21;6.43;;;1.65;;
44120;SDS011;29783;52.504;13.478;2023-04-06T17:23:46;6.18;;;2.80;;
44120;SDS011;29783;52.504;13.478;2023-04-06T17:26:12;3.88;;;2.20;;
44120;SDS011;29783;52.504;13.478;2023-04-06T17:28:38;3.65;;;1.80;;
44120;SDS011;29783;52.504;13.478;2023-04-06T17:31:07;3.03;;;1.90;;
44120;SDS011;29783;52.504;13.478;2023-04-06T17:33:35;4.32;;;2.10;;
44120;SDS011;29783;52.504;13.478;2023-04-06T17:36:05;5.15;;;1.95;;
44120;SDS011;29783;52.504;13.478;2023-04-06T17:38:34;3.92;;;1.40;;
44120;SDS011;29783;52.504;13.478;2023-04-06T17:41:00;5.00;;;1.77;;
44120;SDS011;29783;52.504;13.478;2023-04-06T17:43:28;4.55;;;2.10;;
44120;SDS011;29783;52.504;13.478;2023-04-06T17:45:54;2.08;;;1.52;;
44120;SDS011;29783;52.504;13.478;2023-04-06T17:48:20;7.18;;;1.88;;
44120;SDS011;29783;52.504;13.478;2023-04-06T17:50:46;4.85;;;2.10;;
44120;SDS011;29783;52.504;13.478;2023-04-06T17:53:11;9.07;;;2.25;;
44120;SDS011;29783;52.504;13.478;2023-04-06T17:55:37;3.85;;;2.05;;
44120;SDS011;29783;52.504;13.478;2023-04-06T17:58:03;5.88;;;2.33;;
44120;SDS011;29783;52.504;13.478;2023-04-06T18:00:29;4.65;;;2.40;;
44120;SDS011;29783;52.504;13.478;2023-04-06T18:02:55;3.85;;;2.30;;
44120;SDS011;29783;52.504;13.478;2023-04-06T18:05:21;4.70;;;2.17;;
44120;SDS011;29783;52.504;13.478;2023-04-06T18:07:49;5.65;;;2.95;;
44120;SDS011;29783;52.504;13.478;2023-04-06T18:10:16;7.90;;;2.80;;
44120;SDS011;29783;52.504;13.478;2023-04-06T18:12:42;15.00;;;2.90;;